Time;durP1;ratioP1;P1;durP2;ratioP2;P2;SDS_P1;SDS_P2;PMS_P1;PMS_P2;Temp;Humidity;BMP_temperature;BMP_pressure;BME280_temperature;BME280_humidity;BME280_pressure;Samples;Min_cycle;Max_cycle;Signal;HPM_P1;HPM_P2
2022/09/11 00:00:05;;;;;;;2.10;1.10;;;;;;;15.81;62.34;98879.22;5105990;28;20059;-70
2022/09/11 00:02:33;;;;;;;1.45;1.10;;;;;;;16.12;62.61;98935.44;5087911;28;20105;-71
2022/09/11 00:05:00;;;;;;;2.55;1.20;;;;;;;16.04;62.85;98930.75;5105768;28;20219;-71
2022/09/11 00:07:29;;;;;;;4.00;1.42;;;;;;;16.06;63.28;98933.28;5088598;28;20059;-72
2022/09/11 00:09:56;;;;;;;1.52;1.13;;;;;;;15.94;63.16;98908.44;5105537;28;20052;-71
2022/09/11 00:12:24;;;;;;;1.58;1.10;;;;;;;15.96;63.66;98927.88;5105772;28;20056;-71
2022/09/11 00:14:53;;;;;;;1.42;1.17;;;;;;;16.09;63.30;98917.84;5105500;28;20117;-70
2022/09/11 00:17:20;;;;;;;1.88;1.30;;;;;;;15.86;63.04;98890.38;5105729;28;20252;-71
2022/09/11 00:19:48;;;;;;;1.52;1.10;;;;;;;15.88;63.40;98884.91;5105047;28;20101;-71
2022/09/11 00:22:15;;;;;;;2.38;1.20;;;;;;;16.11;63.05;98929.25;5105132;28;20056;-70
2022/09/11 00:24:43;;;;;;;1.88;1.20;;;;;;;16.00;63.59;98923.97;5105406;28;20055;-71
2022/09/11 00:27:10;;;;;;;2.13;1.40;;;;;;;16.08;63.19;98920.63;5105257;28;20064;-70
2022/09/11 00:29:37;;;;;;;2.20;1.40;;;;;;;16.00;63.40;98919.47;5105515;28;20109;-71
2022/09/11 00:32:06;;;;;;;5.75;1.42;;;;;;;16.02;63.34;98927.34;5105477;28;20051;-70
2022/09/11 00:34:33;;;;;;;2.50;1.40;;;;;;;16.00;63.76;98922.13;5105508;28;20117;-71
2022/09/11 00:37:02;;;;;;;3.53;1.40;;;;;;;15.78;63.97;98905.34;5104997;28;20056;-70
2022/09/11 00:39:30;;;;;;;2.78;1.40;;;;;;;16.03;63.42;98923.69;5104930;28;20189;-70
2022/09/11 00:41:57;;;;;;;2.22;1.30;;;;;;;16.09;63.67;98920.50;5105471;28;20169;-71
2022/09/11 00:45:00;;;;;;;2.35;1.45;;;;;;;16.07;63.77;98918.94;5105245;28;20101;-70
2022/09/11 00:47:31;;;;;;;3.33;1.60;;;;;;;16.02;63.70;98922.84;5105709;28;20039;-70
2022/09/11 00:50:12;;;;;;;2.08;1.30;;;;;;;16.01;64.01;98925.66;5105172;28;20262;-71
2022/09/11 00:52:48;;;;;;;3.10;1.40;;;;;;;15.83;64.20;98906.66;5089596;28;20089;-71
2022/09/11 00:55:20;;;;;;;2.10;1.40;;;;;;;15.94;64.49;98927.16;5104846;28;20101;-71
2022/09/11 00:57:52;;;;;;;2.72;1.30;;;;;;;15.86;64.69;98908.25;5105102;28;20312;-71
2022/09/11 01:00:19;;;;;;;2.53;1.33;;;;;;;15.74;64.53;98888.75;5105223;28;20056;-71
2022/09/11 01:02:51;;;;;;;1.83;1.20;;;;;;;15.91;64.63;98919.38;5105158;28;20052;-70
2022/09/11 01:05:21;;;;;;;4.05;1.50;;;;;;;15.84;65.26;98915.53;5105156;28;20051;-72
2022/09/11 01:07:53;;;;;;;1.77;1.60;;;;;;;15.84;65.12;98916.38;5104984;28;20105;-71
2022/09/11 01:10:27;;;;;;;2.03;1.20;;;;;;;15.93;65.05;98923.63;5104696;28;20098;-71
2022/09/11 01:13:05;;;;;;;2.42;1.25;;;;;;;15.74;64.98;98886.06;5104999;28;20101;-70
2022/09/11 01:15:41;;;;;;;1.55;1.10;;;;;;;15.95;64.67;98912.81;5105075;28;20052;-70
2022/09/11 01:18:18;;;;;;;2.75;1.45;;;;;;;15.84;65.15;98916.38;5104756;28;20056;-70
2022/09/11 01:21:03;;;;;;;2.53;1.40;;;;;;;15.84;65.60;98918.22;5105058;28;20085;-71
2022/09/11 01:24:04;;;;;;;2.90;1.30;;;;;;;15.53;65.70;98885.16;5105069;28;20048;-72
2022/09/11 01:26:54;;;;;;;2.00;1.33;;;;;;;15.74;66.16;98906.59;5104694;28;20090;-71
2022/09/11 01:29:27;;;;;;;2.55;1.20;;;;;;;15.78;65.99;98905.34;5104846;28;20320;-71
2022/09/11 01:32:04;;;;;;;2.75;1.40;;;;;;;15.46;65.91;98857.25;5105454;28;20296;-71
2022/09/11 01:34:39;;;;;;;3.10;1.35;;;;;;;15.86;65.82;98906.41;5104472;28;20377;-70
2022/09/11 01:37:12;;;;;;;3.45;1.40;;;;;;;15.89;65.19;98905.31;5104850;28;20060;-71
2022/09/11 01:39:44;;;;;;;2.00;1.40;;;;;;;15.90;65.31;98907.84;5088003;28;20052;-71
2022/09/11 01:42:17;;;;;;;2.65;1.20;;;;;;;15.93;65.04;98906.75;5104800;28;20064;-70
2022/09/11 01:44:56;;;;;;;2.28;1.42;;;;;;;15.52;65.89;98857.59;5104709;28;20094;-71
2022/09/11 01:47:24;;;;;;;2.42;1.13;;;;;;;15.76;65.94;98926.00;5104637;28;20082;-71
2022/09/11 01:49:56;;;;;;;2.63;1.58;;;;;;;15.78;65.89;98908.03;5105294;28;20258;-71
2022/09/11 01:52:27;;;;;;;2.30;1.30;;;;;;;15.31;65.85;98828.19;5108344;28;20060;-71
2022/09/11 01:54:58;;;;;;;2.03;1.63;;;;;;;15.80;65.80;98916.78;5108046;28;20112;-70
2022/09/11 01:57:31;;;;;;;2.60;1.40;;;;;;;15.75;66.26;98927.84;5108257;28;20052;-70
2022/09/11 02:00:03;;;;;;;2.00;1.33;;;;;;;15.76;65.88;98913.50;5108399;28;20109;-71
2022/09/11 02:02:38;;;;;;;3.05;1.30;;;;;;;15.83;65.67;98914.69;5108397;28;20040;-71
2022/09/11 02:05:09;;;;;;;2.55;1.30;;;;;;;15.64;65.54;98895.78;5107935;28;20048;-71
2022/09/11 02:07:42;;;;;;;2.25;1.38;;;;;;;15.78;65.94;98913.38;5107951;28;20052;-71
2022/09/11 02:10:20;;;;;;;2.28;1.60;;;;;;;15.81;66.30;98913.13;5107877;28;20113;-71
2022/09/11 02:12:53;;;;;;;2.70;1.50;;;;;;;15.36;66.21;98835.81;5108203;28;20056;-72
2022/09/11 02:15:31;;;;;;;2.10;1.40;;;;;;;15.78;66.25;98905.34;5107536;28;20051;-71
2022/09/11 02:18:02;;;;;;;2.53;1.42;;;;;;;15.82;66.07;98904.13;5107754;28;20055;-71
2022/09/11 02:20:30;;;;;;;4.85;2.10;;;;;;;15.84;65.78;98911.03;5107758;28;20105;-71
2022/09/11 02:22:58;;;;;;;2.03;1.38;;;;;;;15.84;65.81;98902.19;5107821;28;20258;-71
2022/09/11 02:25:25;;;;;;;3.08;1.52;;;;;;;15.81;66.07;98908.63;5107759;28;20303;-70
2022/09/11 02:27:53;;;;;;;2.30;1.35;;;;;;;15.84;65.49;98902.19;5107446;28;20059;-70
2022/09/11 02:30:22;;;;;;;2.47;1.35;;;;;;;15.81;65.99;98897.94;5107734;28;20316;-70
2022/09/11 02:32:49;;;;;;;3.25;1.42;;;;;;;15.40;65.64;98846.13;5107924;28;20109;-70
2022/09/11 02:35:17;;;;;;;4.85;1.60;;;;;;;15.82;65.89;98888.09;5107432;28;20052;-71
2022/09/11 02:37:50;;;;;;;1.80;1.30;;;;;;;15.78;66.22;98894.66;5107396;28;20064;-71
2022/09/11 02:40:27;;;;;;;2.60;1.60;;;;;;;15.70;66.29;98881.97;5107523;28;20055;-70
2022/09/11 02:43:10;;;;;;;2.25;1.45;;;;;;;15.78;66.01;98894.66;5107516;28;20101;-70
2022/09/11 02:45:51;;;;;;;3.45;1.55;;;;;;;15.74;66.12;98894.09;5107159;28;20106;-70
2022/09/11 02:48:36;;;;;;;2.40;1.40;;;;;;;15.70;66.29;98897.97;5107409;28;20056;-70
2022/09/11 02:51:13;;;;;;;2.17;1.30;;;;;;;15.73;65.76;98904.91;5089384;28;20050;-71
2022/09/11 02:53:49;;;;;;;2.33;1.35;;;;;;;15.72;66.07;98906.72;5107061;28;20258;-71
2022/09/11 02:56:26;;;;;;;3.13;1.52;;;;;;;15.48;65.73;98855.31;5107227;28;20189;-71
2022/09/11 02:58:57;;;;;;;1.88;1.10;;;;;;;15.63;66.17;98900.28;5107042;28;20068;-71
2022/09/11 03:01:25;;;;;;;2.30;1.20;;;;;;;15.71;66.16;98897.00;5106589;28;20060;-71
2022/09/11 03:03:53;;;;;;;3.45;1.55;;;;;;;15.71;66.30;98897.84;5106844;28;20068;-71
2022/09/11 03:06:26;;;;;;;2.42;1.50;;;;;;;15.76;66.10;98900.16;5107025;28;20060;-71
2022/09/11 03:08:54;;;;;;;2.90;1.60;;;;;;;15.75;66.06;98903.78;5107010;28;20056;-71
2022/09/11 03:11:21;;;;;;;2.15;1.40;;;;;;;15.64;66.11;98901.97;5106935;28;20056;-70
2022/09/11 03:13:49;;;;;;;2.85;1.45;;;;;;;15.69;66.02;98904.31;5106452;28;20254;-70
2022/09/11 03:16:16;;;;;;;2.53;1.83;;;;;;;15.68;66.46;98899.94;5106705;28;20243;-70
2022/09/11 03:18:44;;;;;;;2.58;1.30;;;;;;;15.67;66.25;98903.59;5106446;28;20047;-70
2022/09/11 03:21:12;;;;;;;2.75;1.45;;;;;;;15.65;66.30;98909.06;5106551;28;20055;-71
2022/09/11 03:23:40;;;;;;;2.85;1.30;;;;;;;15.65;66.08;98897.53;5106163;28;20254;-71
2022/09/11 03:26:07;;;;;;;3.15;1.42;;;;;;;15.31;66.08;98846.88;5106565;28;20316;-71
2022/09/11 03:28:35;;;;;;;2.17;1.40;;;;;;;15.65;66.08;98901.03;5106423;28;20048;-71
2022/09/11 03:31:03;;;;;;;2.50;1.60;;;;;;;15.67;65.93;98907.09;5106260;28;20064;-71
2022/09/11 03:33:31;;;;;;;2.78;1.50;;;;;;;15.15;66.13;98856.25;5105933;28;20113;-71
2022/09/11 03:36:00;;;;;;;3.15;1.50;;;;;;;15.63;66.06;98913.66;5105941;28;20056;-71
2022/09/11 03:38:27;;;;;;;2.78;1.50;;;;;;;15.60;66.04;98919.25;5106347;28;20060;-70
2022/09/11 03:40:55;;;;;;;2.55;1.50;;;;;;;15.57;66.46;98918.66;5106307;28;20117;-71
2022/09/11 03:43:22;;;;;;;2.28;1.60;;;;;;;15.53;66.33;98909.19;5089340;28;20062;-70
2022/09/11 03:45:50;;;;;;;3.20;1.50;;;;;;;15.61;66.21;98912.91;5106238;28;20342;-70
2022/09/11 03:48:18;;;;;;;1.90;1.35;;;;;;;15.66;65.94;98918.75;5106267;28;20073;-69
2022/09/11 03:50:46;;;;;;;2.90;1.35;;;;;;;15.64;65.76;98898.47;5106272;28;20243;-70
2022/09/11 03:53:15;;;;;;;2.20;1.40;;;;;;;15.62;65.94;98903.94;5106015;28;20052;-70
2022/09/11 03:55:44;;;;;;;3.17;1.40;;;;;;;15.65;65.79;98894.84;5106016;28;20311;-70
2022/09/11 03:58:12;;;;;;;2.53;1.40;;;;;;;15.63;65.64;98899.44;5105856;28;20381;-70
2022/09/11 04:00:41;;;;;;;2.60;1.55;;;;;;;15.51;65.79;98866.59;5106103;28;20089;-70
2022/09/11 04:03:09;;;;;;;1.95;1.23;;;;;;;15.60;66.07;98902.38;5105413;28;20052;-70
2022/09/11 04:05:36;;;;;;;2.90;1.35;;;;;;;15.55;66.01;98892.06;5105925;28;20109;-70
2022/09/11 04:08:05;;;;;;;2.33;1.55;;;;;;;15.58;66.07;98899.81;5105639;28;20051;-70
2022/09/11 04:10:34;;;;;;;2.67;1.27;;;;;;;13.15;66.09;98491.28;5105761;28;20060;-70
2022/09/11 04:13:01;;;;;;;2.05;1.35;;;;;;;15.60;65.85;98892.53;5104871;28;20060;-69
2022/09/11 04:15:29;;;;;;;2.08;1.40;;;;;;;15.61;65.79;98890.69;5104942;28;20056;-69
2022/09/11 04:17:56;;;;;;;2.78;1.30;;;;;;;15.62;66.20;98887.06;5105421;28;20251;-70
2022/09/11 04:20:23;;;;;;;2.58;1.80;;;;;;;15.67;65.67;98888.41;5105587;28;20052;-70
2022/09/11 04:22:51;;;;;;;2.15;1.30;;;;;;;15.64;66.26;98888.63;5105107;28;20201;-70
2022/09/11 04:25:18;;;;;;;3.33;1.55;;;;;;;15.64;66.27;98896.63;5105620;28;20105;-70
2022/09/11 04:27:47;;;;;;;2.28;1.45;;;;;;;15.61;65.97;98888.03;5105595;28;20130;-71
2022/09/11 04:30:15;;;;;;;2.40;1.30;;;;;;;15.57;66.72;98887.44;5105483;28;20071;-70
2022/09/11 04:32:43;;;;;;;3.38;1.67;;;;;;;14.80;67.16;98753.28;5105464;28;20059;-70
2022/09/11 04:35:10;;;;;;;2.55;1.77;;;;;;;15.51;67.49;98903.13;5087759;28;20320;-70
2022/09/11 04:37:37;;;;;;;2.80;1.60;;;;;;;15.48;68.04;98887.34;5105503;28;20109;-70
2022/09/11 04:40:05;;;;;;;3.55;1.85;;;;;;;14.95;67.54;98784.03;5105070;28;20117;-70
2022/09/11 04:42:32;;;;;;;2.58;1.63;;;;;;;15.48;67.18;98869.50;5105381;28;20308;-70
2022/09/11 04:45:01;;;;;;;3.08;1.77;;;;;;;15.54;67.44;98887.69;5105450;28;20055;-70
2022/09/11 04:47:29;;;;;;;3.13;1.83;;;;;;;15.62;67.59;98877.22;5105087;28;20052;-70
2022/09/11 04:49:56;;;;;;;2.92;2.15;;;;;;;15.49;67.37;98884.56;5105154;28;20055;-70
2022/09/11 04:52:23;;;;;;;2.30;1.70;;;;;;;14.97;67.27;98794.56;5104982;28;20060;-70
2022/09/11 04:54:51;;;;;;;2.60;1.52;;;;;;;15.50;67.62;98883.59;5104993;28;20048;-70
2022/09/11 04:57:18;;;;;;;3.42;1.70;;;;;;;15.46;67.58;98887.47;5105352;28;20059;-70
2022/09/11 04:59:46;;;;;;;2.60;1.50;;;;;;;15.48;67.38;98884.69;5105300;28;20064;-70
2022/09/11 05:02:15;;;;;;;3.20;2.00;;;;;;;15.48;67.32;98874.84;5105047;28;20064;-70
2022/09/11 05:04:43;;;;;;;2.78;1.63;;;;;;;15.52;67.01;98878.97;5105112;28;20111;-70
2022/09/11 05:07:12;;;;;;;4.15;1.70;;;;;;;15.53;66.68;98879.81;5105170;28;20105;-70
2022/09/11 05:09:39;;;;;;;3.47;1.77;;;;;;;15.49;67.07;98887.22;5105051;28;20056;-70
2022/09/11 05:12:07;;;;;;;2.70;1.80;;;;;;;15.53;66.99;98877.13;5104797;28;20113;-70
2022/09/11 05:14:34;;;;;;;3.50;1.80;;;;;;;15.44;67.36;98870.75;5105194;28;20101;-70
2022/09/11 05:17:01;;;;;;;3.33;1.73;;;;;;;15.50;67.14;98888.06;5104935;28;20110;-69
2022/09/11 05:19:30;;;;;;;2.60;1.80;;;;;;;15.53;67.03;98880.66;5105100;28;20056;-70
2022/09/11 05:21:58;;;;;;;2.95;1.92;;;;;;;15.62;66.75;98871.88;5104948;28;20109;-70
2022/09/11 05:24:25;;;;;;;3.65;1.80;;;;;;;15.54;66.86;98878.84;5104697;28;20116;-70
2022/09/11 05:26:52;;;;;;;2.80;1.50;;;;;;;15.54;66.79;98895.72;5108795;28;20105;-70
2022/09/11 05:29:19;;;;;;;2.60;1.70;;;;;;;15.54;67.24;98895.72;5109036;28;20055;-70
2022/09/11 05:31:48;;;;;;;3.55;1.50;;;;;;;15.63;66.89;98894.94;5108416;28;20059;-69
2022/09/11 05:34:16;;;;;;;3.15;1.50;;;;;;;15.57;66.74;98898.13;5090611;28;20254;-70
2022/09/11 05:36:44;;;;;;;2.58;1.80;;;;;;;15.66;66.58;98893.88;5108557;28;20056;-70
2022/09/11 05:39:12;;;;;;;2.85;1.50;;;;;;;15.62;66.82;98901.25;5108542;28;20052;-70
2022/09/11 05:41:39;;;;;;;4.28;1.60;;;;;;;15.60;67.02;98903.22;5108392;28;20105;-70
2022/09/11 05:44:06;;;;;;;4.43;1.30;;;;;;;15.59;67.13;98900.66;5108293;28;20052;-70
2022/09/11 05:46:34;;;;;;;2.22;1.48;;;;;;;15.60;66.60;98908.56;5108664;28;20047;-70
2022/09/11 05:49:01;;;;;;;3.47;1.70;;;;;;;15.68;66.50;98900.78;5108392;28;20056;-70
2022/09/11 05:51:28;;;;;;;2.72;1.60;;;;;;;15.68;66.50;98903.47;5108483;28;20060;-70
2022/09/11 05:53:57;;;;;;;2.67;1.70;;;;;;;15.67;66.92;98916.94;5108244;28;20063;-70
2022/09/11 05:56:27;;;;;;;3.75;1.60;;;;;;;15.59;67.05;98914.03;5107914;28;20052;-70
2022/09/11 05:58:54;;;;;;;2.97;1.60;;;;;;;15.68;67.19;98907.94;5108501;28;20040;-70
2022/09/11 06:01:23;;;;;;;2.42;1.40;;;;;;;15.61;66.40;98883.53;5108244;28;20161;-70
2022/09/11 06:03:51;;;;;;;3.55;1.73;;;;;;;15.79;66.87;98904.38;5108299;28;20056;-70
2022/09/11 06:06:20;;;;;;;2.90;1.75;;;;;;;15.80;66.57;98914.94;5108135;28;20060;-70
2022/09/11 06:08:49;;;;;;;2.65;1.63;;;;;;;15.82;66.34;98918.34;5090458;28;20109;-70
2022/09/11 06:11:19;;;;;;;4.70;1.70;;;;;;;15.85;66.46;98914.56;5107932;28;20109;-70
2022/09/11 06:13:47;;;;;;;2.53;1.70;;;;;;;15.83;66.60;98914.69;5107892;28;20243;-70
2022/09/11 06:16:17;;;;;;;2.65;1.63;;;;;;;15.88;66.45;98917.81;5107565;28;20056;-70
2022/09/11 06:18:47;;;;;;;3.33;1.83;;;;;;;15.84;66.57;98916.38;5107346;28;20063;-70
2022/09/11 06:21:18;;;;;;;2.95;1.60;;;;;;;15.87;66.70;98931.31;5107416;28;20063;-70
2022/09/11 06:23:46;;;;;;;2.63;1.80;;;;;;;15.28;67.31;98836.44;5107737;28;20063;-70
2022/09/11 06:26:15;;;;;;;3.42;1.95;;;;;;;15.91;66.98;98941.63;5107475;28;20169;-70
2022/09/11 06:28:44;;;;;;;3.38;1.98;;;;;;;15.93;67.46;98936.16;5107284;28;20056;-70
2022/09/11 06:31:15;;;;;;;2.75;1.70;;;;;;;15.79;68.04;98934.63;5107612;28;20050;-70
2022/09/11 06:33:42;;;;;;;3.40;1.83;;;;;;;15.79;68.37;98934.63;5107454;28;20052;-70
2022/09/11 06:36:12;;;;;;;3.50;2.00;;;;;;;15.86;68.11;98929.63;5106728;28;20113;-70
2022/09/11 06:38:40;;;;;;;3.67;1.80;;;;;;;15.84;68.58;98932.41;5107194;28;20056;-70
2022/09/11 06:41:11;;;;;;;2.55;1.55;;;;;;;15.80;68.68;98930.97;5107483;28;20081;-70
2022/09/11 06:43:39;;;;;;;2.60;1.60;;;;;;;15.76;68.90;98936.69;5090156;28;20056;-70
2022/09/11 06:46:13;;;;;;;2.70;1.58;;;;;;;15.80;69.10;98930.97;5106906;28;20068;-70
2022/09/11 06:48:41;;;;;;;2.33;1.50;;;;;;;15.40;69.39;98871.97;5107216;28;20056;-70
2022/09/11 06:51:10;;;;;;;2.17;1.60;;;;;;;14.91;69.34;98819.09;5107473;28;20315;-70
2022/09/11 06:53:39;;;;;;;2.70;1.58;;;;;;;15.75;69.03;98929.66;5106942;28;20323;-70
2022/09/11 06:56:08;;;;;;;3.15;1.90;;;;;;;15.68;69.53;98932.00;5107137;28;20312;-70
2022/09/11 06:58:35;;;;;;;2.97;1.92;;;;;;;15.65;69.28;98926.91;5107144;28;20055;-69
2022/09/11 07:01:03;;;;;;;2.65;1.50;;;;;;;15.66;68.83;98921.44;5106908;28;20312;-70
2022/09/11 07:03:32;;;;;;;2.80;1.50;;;;;;;15.74;68.79;98933.31;5107098;28;20051;-70
2022/09/11 07:06:00;;;;;;;2.95;1.75;;;;;;;15.79;69.10;98936.44;5107039;28;20052;-70
2022/09/11 07:08:28;;;;;;;2.88;1.65;;;;;;;15.86;68.96;98932.28;5106383;28;20324;-70
2022/09/11 07:10:55;;;;;;;2.70;2.00;;;;;;;15.97;68.53;98930.41;5107623;28;20113;-69
2022/09/11 07:13:23;;;;;;;2.53;1.70;;;;;;;15.94;68.02;98932.50;5106901;28;20242;-70
2022/09/11 07:16:00;;;;;;;2.78;1.48;;;;;;;15.95;68.38;98940.38;5106427;28;20101;-70
2022/09/11 07:18:35;;;;;;;2.95;1.67;;;;;;;15.96;67.98;98925.19;5106375;28;20117;-70
2022/09/11 07:21:06;;;;;;;3.03;1.55;;;;;;;15.91;68.08;98914.03;5106593;28;20055;-70
2022/09/11 07:23:34;;;;;;;2.28;1.52;;;;;;;16.04;67.78;98925.41;5106549;28;20085;-69
2022/09/11 07:26:04;;;;;;;2.42;1.40;;;;;;;15.99;67.63;98928.47;5106854;28;20105;-70
2022/09/11 07:28:32;;;;;;;2.90;1.77;;;;;;;15.47;67.35;98850.94;5107003;28;20060;-70
2022/09/11 07:31:09;;;;;;;3.22;1.88;;;;;;;15.96;67.81;98936.72;5106501;28;20110;-70
2022/09/11 07:33:39;;;;;;;3.30;1.90;;;;;;;16.10;67.29;98926.72;5106121;28;20063;-70
2022/09/11 07:36:10;;;;;;;2.60;2.03;;;;;;;16.12;67.02;98930.94;5106165;28;20358;-70
2022/09/11 07:38:40;;;;;;;2.60;1.80;;;;;;;16.17;67.05;98925.22;5106325;28;20063;-70
2022/09/11 07:41:08;;;;;;;4.18;1.92;;;;;;;16.16;66.97;98937.72;5106420;28;20197;-70
2022/09/11 07:43:35;;;;;;;5.07;2.25;;;;;;;16.17;67.05;98939.41;5106198;28;20056;-70
2022/09/11 07:46:03;;;;;;;2.90;1.85;;;;;;;15.57;66.69;98830.50;5106308;28;20051;-70
2022/09/11 07:48:32;;;;;;;2.88;1.83;;;;;;;16.36;66.75;98952.06;5105966;28;20063;-70
2022/09/11 07:51:03;;;;;;;2.75;2.03;;;;;;;15.80;66.15;98868.69;5105835;28;20059;-70
2022/09/11 07:53:33;;;;;;;3.38;2.15;;;;;;;16.40;66.34;98952.66;5106267;28;20052;-70
2022/09/11 07:56:02;;;;;;;4.68;2.22;;;;;;;16.40;66.09;98966.88;5105782;28;20102;-70
2022/09/11 07:58:32;;;;;;;4.13;2.03;;;;;;;16.37;65.49;98951.09;5106532;28;20081;-70
2022/09/11 08:01:01;;;;;;;2.75;2.15;;;;;;;16.41;65.89;98955.22;5105991;28;20056;-70
2022/09/11 08:03:29;;;;;;;3.55;1.90;;;;;;;16.53;65.87;98964.00;5106204;28;20044;-70
2022/09/11 08:05:58;;;;;;;2.72;1.92;;;;;;;16.72;65.51;98957.94;5105659;28;20055;-70
2022/09/11 08:08:28;;;;;;;3.88;1.90;;;;;;;16.68;64.65;98944.84;5105572;28;20056;-70
2022/09/11 08:10:55;;;;;;;3.35;1.95;;;;;;;16.88;64.16;98961.00;5105414;28;20052;-70
2022/09/11 08:13:23;;;;;;;2.60;1.90;;;;;;;16.70;64.03;98938.50;5105687;28;20227;-70
2022/09/11 08:15:51;;;;;;;2.83;1.92;;;;;;;16.87;63.99;98970.00;5105769;28;20105;-70
2022/09/11 08:18:19;;;;;;;4.15;1.92;;;;;;;16.85;64.00;98953.22;5104941;28;20052;-70
2022/09/11 08:20:46;;;;;;;3.20;2.20;;;;;;;16.96;64.20;98953.13;5087647;28;20060;-70
2022/09/11 08:23:15;;;;;;;2.58;1.83;;;;;;;17.05;64.11;98930.06;5071188;28;20085;-70
2022/09/11 08:25:44;;;;;;;3.42;2.28;;;;;;;17.28;63.91;98964.56;5105442;28;20255;-70
2022/09/11 08:28:11;;;;;;;2.75;2.00;;;;;;;17.24;63.24;98948.91;5105391;28;20064;-70
2022/09/11 08:30:39;;;;;;;3.53;2.25;;;;;;;17.25;62.86;98956.78;5105450;28;20060;-70
2022/09/11 08:33:08;;;;;;;2.60;1.80;;;;;;;17.26;63.22;98957.63;5105265;28;20113;-70
2022/09/11 08:35:36;;;;;;;2.90;1.92;;;;;;;17.36;63.16;98955.84;5105097;28;20055;-70
2022/09/11 08:38:03;;;;;;;3.10;2.03;;;;;;;16.80;63.21;98875.16;5105343;28;20048;-70
2022/09/11 08:40:33;;;;;;;4.78;2.30;;;;;;;17.34;62.64;98952.44;5105379;28;20055;-70
2022/09/11 08:43:04;;;;;;;3.03;1.75;;;;;;;17.35;62.63;98964.84;5105062;28;20311;-70
2022/09/11 08:45:35;;;;;;;3.47;1.85;;;;;;;17.37;62.82;98968.25;5105362;28;20056;-70
2022/09/11 08:48:05;;;;;;;4.13;2.33;;;;;;;17.40;62.81;98969.81;5105191;28;20110;-70
2022/09/11 08:50:38;;;;;;;2.83;2.17;;;;;;;17.38;63.07;98961.91;5105201;28;20063;-70
2022/09/11 08:53:09;;;;;;;4.95;1.80;;;;;;;17.49;63.11;98964.47;5105776;28;20047;-70
2022/09/11 08:55:39;;;;;;;3.65;1.85;;;;;;;17.45;62.92;98971.09;5105316;28;20056;-70
2022/09/11 08:58:19;;;;;;;2.85;2.00;;;;;;;17.39;62.12;98968.09;5105385;28;20056;-70
2022/09/11 09:00:55;;;;;;;2.83;1.83;;;;;;;17.35;62.49;98969.38;5107520;28;20078;-70
2022/09/11 09:03:41;;;;;;;4.35;2.25;;;;;;;17.26;62.05;98965.69;5109552;28;20055;-70
2022/09/11 09:06:26;;;;;;;3.47;1.73;;;;;;;17.26;62.13;98971.03;5109578;28;20063;-70
2022/09/11 09:09:03;;;;;;;2.55;1.70;;;;;;;17.26;62.76;98961.16;5092592;28;20055;-70
2022/09/11 09:11:39;;;;;;;3.20;1.95;;;;;;;17.24;62.07;98959.59;5109037;28;20060;-70
2022/09/11 09:14:39;;;;;;;4.68;2.03;;;;;;;17.21;62.35;98952.69;5109049;28;20055;-69
2022/09/11 09:17:15;;;;;;;3.28;1.90;;;;;;;17.10;62.18;98927.81;5108731;28;20055;-69
2022/09/11 09:19:50;;;;;;;2.60;1.73;;;;;;;16.88;62.47;98864.63;5108507;28;20052;-70
2022/09/11 09:22:22;;;;;;;2.55;1.90;;;;;;;17.02;62.75;98871.44;5109392;28;20051;-70
2022/09/11 09:24:52;;;;;;;2.35;1.67;;;;;;;17.49;62.48;98947.56;5108928;28;20224;-70
2022/09/11 09:27:27;;;;;;;3.08;1.88;;;;;;;17.34;62.31;98911.44;5108764;28;20052;-70
2022/09/11 09:29:55;;;;;;;4.05;1.80;;;;;;;17.74;61.88;98941.69;5109079;28;20055;-70
2022/09/11 09:32:31;;;;;;;2.97;2.05;;;;;;;17.89;61.04;98918.84;5109057;28;20059;-70
2022/09/11 09:35:02;;;;;;;2.88;1.70;;;;;;;17.99;60.78;98918.00;5108777;28;20213;-70
2022/09/11 09:37:30;;;;;;;2.30;1.30;;;;;;;18.29;60.26;98944.66;5108480;28;20048;-70
2022/09/11 09:39:59;;;;;;;3.17;1.50;;;;;;;18.43;60.11;98954.09;5108635;28;20296;-70
2022/09/11 09:43:09;;;;;;;3.28;1.52;;;;;;;18.00;61.09;98933.94;5108385;28;20051;-70
2022/09/11 09:45:42;;;;;;;4.07;1.70;;;;;;;18.05;63.23;98952.28;5108723;28;20208;-70
2022/09/11 09:48:12;;;;;;;2.92;1.98;;;;;;;17.81;64.36;98952.69;5108569;28;20308;-70
2022/09/11 09:50:42;;;;;;;2.92;1.73;;;;;;;17.63;65.14;98960.59;5091357;28;20056;-70
2022/09/11 09:53:19;;;;;;;2.80;2.00;;;;;;;17.52;66.15;98964.19;5108894;28;20208;-70
2022/09/11 09:55:47;;;;;;;2.83;1.90;;;;;;;17.41;66.65;98956.28;5092059;28;20185;-70
2022/09/11 09:58:15;;;;;;;2.63;2.10;;;;;;;17.37;66.31;98959.38;5108501;28;20063;-70
2022/09/11 10:00:42;;;;;;;3.03;1.88;;;;;;;17.09;67.31;98968.97;5108302;28;20055;-70
2022/09/11 10:03:22;;;;;;;3.08;2.13;;;;;;;17.18;67.64;98968.16;5108168;28;20212;-70
2022/09/11 10:05:52;;;;;;;2.92;2.00;;;;;;;17.16;67.56;98962.94;5108390;28;20062;-70
2022/09/11 10:08:28;;;;;;;4.60;1.77;;;;;;;17.00;67.74;98922.44;5090639;28;20347;-70
2022/09/11 10:10:57;;;;;;;2.83;2.08;;;;;;;17.18;68.23;98971.69;5108436;28;20308;-70
2022/09/11 10:13:27;;;;;;;6.22;2.45;;;;;;;17.16;68.04;98938.84;5107987;28;20062;-70
2022/09/11 10:15:58;;;;;;;2.97;2.03;;;;;;;17.39;68.46;98968.09;5108288;28;20067;-70
2022/09/11 10:18:41;;;;;;;4.18;1.70;;;;;;;17.45;68.92;98971.09;5107727;28;20051;-70
2022/09/11 10:21:28;;;;;;;6.65;1.98;;;;;;;17.46;69.98;98969.25;5107765;28;20109;-70
2022/09/11 10:23:57;;;;;;;5.28;2.22;;;;;;;17.56;68.59;98976.34;5108072;28;20106;-70
2022/09/11 10:26:31;;;;;;;3.47;2.20;;;;;;;17.53;68.65;98981.13;5107698;28;20081;-70
2022/09/11 10:29:05;;;;;;;2.90;1.70;;;;;;;17.50;68.01;98976.88;5107490;28;20052;-70
2022/09/11 10:31:36;;;;;;;2.88;1.83;;;;;;;17.36;67.58;98974.59;5107856;28;20055;-70
2022/09/11 10:34:06;;;;;;;2.90;1.90;;;;;;;17.36;67.19;98971.06;5107330;28;20055;-70
2022/09/11 10:36:34;;;;;;;2.85;1.98;;;;;;;17.31;67.53;98960.75;5090105;28;20274;-70
2022/09/11 10:39:02;;;;;;;2.53;1.80;;;;;;;17.32;67.39;98962.44;5107295;28;20067;-70
2022/09/11 10:41:32;;;;;;;3.45;2.00;;;;;;;17.18;68.31;98926.16;5107672;28;20060;-70
2022/09/11 10:44:02;;;;;;;2.80;1.90;;;;;;;17.36;67.70;98957.66;5107510;28;20304;-70
2022/09/11 10:46:36;;;;;;;3.13;2.30;;;;;;;17.34;68.04;98951.59;5107286;28;20052;-70
2022/09/11 10:49:19;;;;;;;3.67;2.28;;;;;;;17.46;68.28;98955.88;5107745;28;20044;-70
2022/09/11 10:52:02;;;;;;;3.35;1.90;;;;;;;17.29;67.84;98949.34;5107248;28;20074;-70
2022/09/11 10:54:45;;;;;;;3.22;2.00;;;;;;;17.17;69.17;98943.22;5107817;28;20055;-70
2022/09/11 10:57:22;;;;;;;3.00;2.33;;;;;;;16.67;69.66;98891.47;5073905;28;20054;-70
2022/09/11 11:00:01;;;;;;;2.88;1.88;;;;;;;17.00;69.95;98959.91;5107122;28;20107;-70
2022/09/11 11:02:32;;;;;;;3.88;2.10;;;;;;;16.86;69.83;98946.91;5107174;28;20106;-70
2022/09/11 11:05:03;;;;;;;4.72;1.85;;;;;;;17.00;69.82;98954.56;5107026;28;20365;-69
2022/09/11 11:08:17;;;;;;;2.97;2.05;;;;;;;17.02;69.98;98946.41;5106955;28;20105;-70
2022/09/11 11:11:02;;;;;;;2.80;2.00;;;;;;;17.28;70.92;98948.50;5105977;28;20101;-70
2022/09/11 11:13:58;;;;;;;4.82;2.25;;;;;;;17.30;69.27;98938.50;5106812;28;20078;-70
2022/09/11 11:16:39;;;;;;;3.30;2.00;;;;;;;17.39;69.69;98944.00;5106950;28;20243;-70
2022/09/11 11:19:28;;;;;;;4.20;2.47;;;;;;;17.37;69.39;98957.53;5106381;28;20117;-70
2022/09/11 11:22:08;;;;;;;2.67;1.70;;;;;;;17.13;68.89;98965.88;5106643;28;20113;-70
2022/09/11 11:24:50;;;;;;;2.95;1.70;;;;;;;17.22;68.58;98950.88;5106149;28;20055;-70
2022/09/11 11:28:00;;;;;;;2.45;1.70;;;;;;;17.12;68.71;98956.16;5107154;28;20043;-70
2022/09/11 11:30:31;;;;;;;2.83;2.00;;;;;;;17.20;68.39;98953.69;5070522;28;20316;-70
2022/09/11 11:33:27;;;;;;;3.15;1.88;;;;;;;17.40;68.55;98959.94;5106593;28;20094;-70
2022/09/11 11:36:04;;;;;;;3.85;1.98;;;;;;;17.45;68.16;98949.66;5088817;28;20052;-70
2022/09/11 11:38:51;;;;;;;3.17;1.90;;;;;;;17.57;67.86;98961.94;5106399;28;20085;-70
2022/09/11 11:41:24;;;;;;;2.50;1.67;;;;;;;17.48;66.96;98945.84;5105889;28;20052;-70
2022/09/11 11:43:54;;;;;;;2.17;1.50;;;;;;;17.56;67.07;98954.06;5105983;28;20113;-70
2022/09/11 11:46:27;;;;;;;2.20;1.60;;;;;;;17.50;65.91;98955.44;5106067;28;20051;-70
2022/09/11 11:48:59;;;;;;;2.35;1.38;;;;;;;17.50;66.23;98955.44;5105998;28;20051;-70
2022/09/11 11:51:27;;;;;;;3.22;1.80;;;;;;;17.52;66.25;98958.00;5106260;28;20059;-70
2022/09/11 11:54:04;;;;;;;3.50;1.58;;;;;;;17.40;65.47;98959.09;5106232;28;20063;-71